Time;durP1;ratioP1;P1;durP2;ratioP2;P2;SDS_P1;SDS_P2;PMS_P1;PMS_P2;Temp;Humidity;BMP_temperature;BMP_pressure;BME280_temperature;BME280_humidity;BME280_pressure;Samples;Min_cycle;Max_cycle;Signal;HPM_P1;HPM_P2
2022/06/15 00:01:04;;;;;;;12.93;5.15;;;;;;;;;;6278145;22;19999;-70
2022/06/15 00:03:31;;;;;;;12.82;4.93;;;;;;;;;;6277740;22;20011;-71
2022/06/15 00:06:06;;;;;;;10.52;5.15;;;;;;;;;;6277685;22;20094;-70
2022/06/15 00:08:31;;;;;;;15.63;5.90;;;;;;;;;;6277344;22;20003;-71
2022/06/15 00:10:57;;;;;;;8.75;4.97;;;;;;;;;;6277484;22;20365;-70
2022/06/15 00:13:22;;;;;;;11.68;6.00;;;;;;;;;;6277752;22;20006;-70
2022/06/15 00:15:48;;;;;;;8.85;5.25;;;;;;;;;;6277318;22;20016;-70
2022/06/15 00:18:13;;;;;;;11.20;5.28;;;;;;;;;;6277639;22;19991;-70
2022/06/15 00:20:39;;;;;;;13.48;5.22;;;;;;;;;;6277637;22;20034;-71
2022/06/15 00:23:04;;;;;;;17.25;5.47;;;;;;;;;;6277586;22;20438;-70
2022/06/15 00:25:29;;;;;;;15.48;6.05;;;;;;;;;;6277305;22;20011;-70
2022/06/15 00:27:55;;;;;;;15.63;5.78;;;;;;;;;;6277484;22;20007;-70
2022/06/15 00:30:21;;;;;;;12.02;5.53;;;;;;;;;;6277430;22;20027;-70
2022/06/15 00:32:46;;;;;;;15.13;5.35;;;;;;;;;;6277422;22;20067;-70
2022/06/15 00:35:13;;;;;;;10.18;5.18;;;;;;;;;;6277559;22;20027;-70
2022/06/15 00:37:38;;;;;;;12.30;5.13;;;;;;;;;;6277308;22;20000;-70
2022/06/15 00:40:05;;;;;;;13.15;5.50;;;;;;;;;;6276560;22;20018;-70
2022/06/15 00:42:31;;;;;;;13.68;5.32;;;;;;;;;;6277334;22;20057;-70
2022/06/15 00:44:56;;;;;;;11.68;5.00;;;;;;;;;;6277259;22;20417;-70
2022/06/15 00:47:23;;;;;;;11.35;5.30;;;;;;;;;;6277234;22;20063;-70
2022/06/15 00:49:56;;;;;;;14.05;5.88;;;;;;;;;;6276718;22;20083;-70
2022/06/15 00:52:32;;;;;;;13.00;5.60;;;;;;;;;;6277537;22;20010;-70
2022/06/15 00:54:58;;;;;;;12.43;5.50;;;;;;;;;;6277221;22;19999;-70
2022/06/15 00:57:25;;;;;;;13.48;5.03;;;;;;;;;;6277325;22;20003;-70
2022/06/15 00:59:53;;;;;;;9.30;5.20;;;;;;;;;;6276512;22;20309;-70
2022/06/15 01:02:18;;;;;;;11.20;5.90;;;;;;;;;;6276925;22;20043;-70
2022/06/15 01:04:53;;;;;;;10.45;5.13;;;;;;;;;;6276873;22;20407;-70
2022/06/15 01:07:18;;;;;;;11.52;5.60;;;;;;;;;;6277208;22;20038;-70
2022/06/15 01:09:51;;;;;;;13.15;5.45;;;;;;;;;;6276429;22;20000;-70
2022/06/15 01:12:24;;;;;;;10.07;5.70;;;;;;;;;;6277126;22;20010;-70
2022/06/15 01:15:01;;;;;;;11.57;5.70;;;;;;;;;;6276898;22;20008;-70
2022/06/15 01:17:26;;;;;;;14.80;5.38;;;;;;;;;;6276871;22;20007;-71
2022/06/15 01:20:08;;;;;;;11.52;5.10;;;;;;;;;;6276858;22;20007;-70
2022/06/15 01:22:39;;;;;;;13.95;5.50;;;;;;;;;;6277118;22;20003;-71
2022/06/15 01:25:07;;;;;;;10.80;5.03;;;;;;;;;;6276732;22;20012;-70
2022/06/15 01:27:51;;;;;;;12.48;5.93;;;;;;;;;;6276975;22;20004;-70
2022/06/15 01:30:20;;;;;;;13.52;5.20;;;;;;;;;;6276626;22;20064;-70
2022/06/15 01:32:51;;;;;;;11.68;5.28;;;;;;;;;;6249890;22;20003;-69
2022/06/15 01:35:17;;;;;;;14.20;5.28;;;;;;;;;;6276768;22;20065;-69
2022/06/15 01:37:56;;;;;;;10.50;5.40;;;;;;;;;;6276525;22;20443;-70
2022/06/15 01:40:36;;;;;;;11.43;5.15;;;;;;;;;;6276715;22;20020;-70
2022/06/15 01:43:05;;;;;;;10.98;4.95;;;;;;;;;;6276949;22;20011;-70
2022/06/15 01:45:32;;;;;;;9.57;4.85;;;;;;;;;;6276537;22;20039;-70
2022/06/15 01:47:59;;;;;;;11.48;5.07;;;;;;;;;;6276909;22;20327;-70
2022/06/15 01:50:26;;;;;;;11.15;5.30;;;;;;;;;;6276755;22;20003;-70
2022/06/15 01:53:11;;;;;;;11.43;5.22;;;;;;;;;;6276658;22;20040;-70
2022/06/15 01:55:56;;;;;;;12.52;4.50;;;;;;;;;;6276592;22;20008;-70
2022/06/15 01:58:24;;;;;;;13.93;4.60;;;;;;;;;;6276752;22;20000;-70
2022/06/15 02:00:53;;;;;;;10.10;5.22;;;;;;;;;;6276574;22;20003;-70
2022/06/15 02:03:23;;;;;;;14.10;5.93;;;;;;;;;;6276857;22;20363;-70
2022/06/15 02:06:03;;;;;;;10.13;5.07;;;;;;;;;;6276443;22;20102;-70
2022/06/15 02:08:49;;;;;;;9.88;4.85;;;;;;;;;;6276682;22;20070;-71
2022/06/15 02:11:23;;;;;;;14.68;5.40;;;;;;;;;;6276764;22;20491;-70
2022/06/15 02:13:52;;;;;;;12.23;5.00;;;;;;;;;;6276047;22;20443;-70
2022/06/15 02:16:19;;;;;;;10.07;4.32;;;;;;;;;;6276229;22;20462;-70
2022/06/15 02:18:46;;;;;;;13.88;4.55;;;;;;;;;;6276426;22;20078;-70
2022/06/15 02:21:14;;;;;;;10.70;4.90;;;;;;;;;;6276740;22;20312;-70
2022/06/15 02:23:40;;;;;;;12.75;4.65;;;;;;;;;;6277983;22;20484;-70
2022/06/15 02:26:06;;;;;;;17.50;5.00;;;;;;;;;;6278587;22;20085;-70
2022/06/15 02:28:32;;;;;;;9.45;5.30;;;;;;;;;;6278724;22;19988;-71
2022/06/15 02:30:58;;;;;;;8.90;4.97;;;;;;;;;;6278221;22;20008;-70
2022/06/15 02:33:23;;;;;;;14.85;5.10;;;;;;;;;;6278953;22;20489;-71
2022/06/15 02:35:48;;;;;;;10.30;5.13;;;;;;;;;;6278374;22;20011;-70
2022/06/15 02:38:14;;;;;;;11.30;4.40;;;;;;;;;;6278887;22;20008;-70
2022/06/15 02:40:39;;;;;;;11.90;4.40;;;;;;;;;;6278053;22;20007;-70
2022/06/15 02:43:04;;;;;;;10.23;4.72;;;;;;;;;;6278463;22;20028;-70
2022/06/15 02:45:31;;;;;;;15.70;5.32;;;;;;;;;;6278322;22;20035;-71
2022/06/15 02:47:57;;;;;;;10.05;4.45;;;;;;;;;;6278469;22;20011;-70
2022/06/15 02:50:23;;;;;;;12.90;5.13;;;;;;;;;;6278439;22;19992;-70
2022/06/15 02:53:01;;;;;;;10.50;4.38;;;;;;;;;;6278446;22;20070;-70
2022/06/15 02:55:27;;;;;;;16.38;4.63;;;;;;;;;;6278318;22;20074;-70
2022/06/15 02:58:00;;;;;;;12.10;5.05;;;;;;;;;;6278359;22;20420;-70
2022/06/15 03:00:25;;;;;;;7.97;4.55;;;;;;;;;;6278233;22;20007;-69
2022/06/15 03:02:51;;;;;;;10.75;4.32;;;;;;;;;;6278442;22;19992;-69
2022/06/15 03:05:16;;;;;;;7.93;4.22;;;;;;;;;;6278285;22;20065;-70
2022/06/15 03:07:41;;;;;;;11.30;4.38;;;;;;;;;;6278384;22;20008;-71
2022/06/15 03:10:07;;;;;;;9.85;4.40;;;;;;;;;;6277925;22;19999;-70
2022/06/15 03:12:32;;;;;;;15.07;5.20;;;;;;;;;;6278186;22;20057;-71
2022/06/15 03:14:57;;;;;;;11.13;4.57;;;;;;;;;;6277911;22;20069;-70
2022/06/15 03:17:23;;;;;;;12.30;4.93;;;;;;;;;;6278091;22;19992;-70
2022/06/15 03:19:48;;;;;;;10.43;4.43;;;;;;;;;;6278051;22;20383;-70
2022/06/15 03:22:13;;;;;;;8.13;4.60;;;;;;;;;;6278304;22;20003;-70
2022/06/15 03:24:38;;;;;;;7.85;4.13;;;;;;;;;;6277766;22;20388;-70
2022/06/15 03:27:04;;;;;;;10.38;4.63;;;;;;;;;;6278254;22;20002;-70
2022/06/15 03:29:31;;;;;;;13.40;4.20;;;;;;;;;;6277982;22;20088;-70
2022/06/15 03:31:56;;;;;;;9.90;4.47;;;;;;;;;;6278206;22;19999;-70
2022/06/15 03:34:21;;;;;;;11.98;4.28;;;;;;;;;;6277619;22;19999;-70
2022/06/15 03:36:46;;;;;;;8.20;4.90;;;;;;;;;;6278016;22;20003;-70
2022/06/15 03:39:12;;;;;;;11.32;4.63;;;;;;;;;;6278100;22;20008;-70
2022/06/15 03:41:37;;;;;;;17.25;4.60;;;;;;;;;;6277630;22;20008;-70
2022/06/15 03:44:02;;;;;;;9.95;4.50;;;;;;;;;;6277802;22;20003;-69
2022/06/15 03:46:29;;;;;;;11.07;4.40;;;;;;;;;;6277802;22;20007;-70
2022/06/15 03:48:54;;;;;;;11.32;4.55;;;;;;;;;;6277740;22;20411;-70
2022/06/15 03:51:19;;;;;;;9.50;4.75;;;;;;;;;;6277979;22;20035;-70
2022/06/15 03:53:45;;;;;;;11.10;4.10;;;;;;;;;;6277754;22;19998;-70
2022/06/15 03:56:10;;;;;;;7.93;4.47;;;;;;;;;;6277942;22;20066;-70
2022/06/15 03:58:35;;;;;;;15.57;4.30;;;;;;;;;;6277879;22;20011;-70
2022/06/15 04:01:01;;;;;;;7.05;4.10;;;;;;;;;;6277339;22;19998;-69
2022/06/15 04:03:26;;;;;;;12.27;4.70;;;;;;;;;;6278059;22;20074;-70
2022/06/15 04:05:54;;;;;;;7.15;4.35;;;;;;;;;;6277218;22;20099;-70
2022/06/15 04:08:40;;;;;;;9.15;4.28;;;;;;;;;;6277865;22;20067;-70
2022/06/15 04:11:07;;;;;;;9.35;4.43;;;;;;;;;;6277731;22;20004;-70
2022/06/15 04:13:33;;;;;;;10.27;4.18;;;;;;;;;;6277738;22;20008;-70
2022/06/15 04:15:58;;;;;;;12.50;4.65;;;;;;;;;;6277229;22;20011;-70
2022/06/15 04:18:24;;;;;;;10.38;4.15;;;;;;;;;;6277829;22;19998;-70
2022/06/15 04:20:49;;;;;;;11.90;4.60;;;;;;;;;;6277396;22;20000;-70
2022/06/15 04:23:17;;;;;;;12.25;4.65;;;;;;;;;;6277627;22;20083;-70
2022/06/15 04:25:44;;;;;;;9.18;4.65;;;;;;;;;;6277365;22;19999;-70
2022/06/15 04:28:11;;;;;;;14.07;4.18;;;;;;;;;;6277629;22;20010;-70
2022/06/15 04:30:36;;;;;;;13.07;4.57;;;;;;;;;;6277283;22;20015;-70
2022/06/15 04:33:02;;;;;;;7.43;4.03;;;;;;;;;;6277738;22;19991;-69
2022/06/15 04:35:27;;;;;;;8.18;4.30;;;;;;;;;;6277594;22;20003;-70
2022/06/15 04:37:53;;;;;;;8.80;3.88;;;;;;;;;;6276965;22;20324;-70
2022/06/15 04:40:18;;;;;;;12.40;3.75;;;;;;;;;;6277437;22;19995;-70
2022/06/15 04:42:44;;;;;;;17.58;4.25;;;;;;;;;;6277310;22;20004;-70
2022/06/15 04:45:10;;;;;;;7.40;3.70;;;;;;;;;;6277058;22;20007;-70
2022/06/15 04:47:36;;;;;;;10.63;3.05;;;;;;;;;;6276880;22;20534;-70
2022/06/15 04:50:01;;;;;;;5.47;2.70;;;;;;;;;;6277182;22;19999;-71
2022/06/15 04:52:27;;;;;;;4.90;2.70;;;;;;;;;;6277369;22;20007;-70
2022/06/15 04:54:52;;;;;;;7.50;2.92;;;;;;;;;;6276824;22;20000;-70
2022/06/15 04:57:17;;;;;;;9.90;2.35;;;;;;;;;;6276926;22;20015;-70
2022/06/15 04:59:42;;;;;;;36.58;3.40;;;;;;;;;;6277079;22;20006;-70
2022/06/15 05:02:09;;;;;;;5.43;2.13;;;;;;;;;;6277045;22;20400;-71
2022/06/15 05:04:35;;;;;;;5.60;2.70;;;;;;;;;;6277224;22;20007;-72
2022/06/15 05:07:00;;;;;;;5.20;2.20;;;;;;;;;;6277371;22;20011;-71
2022/06/15 05:09:25;;;;;;;3.85;2.22;;;;;;;;;;6276932;22;20003;-71
2022/06/15 05:11:50;;;;;;;5.30;2.10;;;;;;;;;;6276903;22;20039;-70
2022/06/15 05:14:16;;;;;;;4.15;2.17;;;;;;;;;;6277007;22;20412;-71
2022/06/15 05:16:41;;;;;;;3.53;2.20;;;;;;;;;;6276868;22;19991;-71
2022/06/15 05:19:06;;;;;;;5.63;2.00;;;;;;;;;;6277029;22;20011;-70
2022/06/15 05:21:31;;;;;;;2.88;1.90;;;;;;;;;;6277056;22;20057;-71
2022/06/15 05:23:57;;;;;;;4.07;2.10;;;;;;;;;;6276871;22;19995;-71
2022/06/15 05:26:24;;;;;;;3.88;1.95;;;;;;;;;;6276992;22;20034;-71
2022/06/15 05:28:50;;;;;;;8.15;2.08;;;;;;;;;;6276729;22;20006;-69
2022/06/15 05:31:18;;;;;;;3.55;1.90;;;;;;;;;;6277138;22;19995;-69
2022/06/15 05:33:43;;;;;;;4.25;1.90;;;;;;;;;;6276744;22;20004;-72
2022/06/15 05:36:10;;;;;;;3.75;1.90;;;;;;;;;;6276889;22;20042;-69
2022/06/15 05:38:36;;;;;;;3.47;1.77;;;;;;;;;;6276601;22;20011;-70
2022/06/15 05:41:02;;;;;;;3.85;1.80;;;;;;;;;;6276802;22;20023;-70
2022/06/15 05:43:27;;;;;;;3.28;1.90;;;;;;;;;;6276900;22;20031;-70
2022/06/15 05:45:53;;;;;;;5.28;1.90;;;;;;;;;;6249441;22;20078;-70
2022/06/15 05:48:18;;;;;;;4.13;1.88;;;;;;;;;;6276863;22;20498;-70
2022/06/15 05:50:43;;;;;;;2.45;1.50;;;;;;;;;;6276697;22;20049;-70
2022/06/15 05:53:09;;;;;;;3.60;1.85;;;;;;;;;;6276914;22;19996;-70
2022/06/15 05:55:34;;;;;;;5.18;1.70;;;;;;;;;;6276753;22;20004;-71
2022/06/15 05:57:59;;;;;;;4.13;1.80;;;;;;;;;;6276391;22;20030;-70
2022/06/15 06:00:25;;;;;;;5.50;2.00;;;;;;;;;;6276662;22;19991;-70
2022/06/15 06:02:50;;;;;;;3.63;1.75;;;;;;;;;;6276217;22;20007;-70
2022/06/15 06:05:16;;;;;;;3.83;1.88;;;;;;;;;;6276713;22;20038;-70
2022/06/15 06:07:41;;;;;;;3.97;1.90;;;;;;;;;;6276270;22;19999;-71
2022/06/15 06:10:06;;;;;;;7.60;2.33;;;;;;;;;;6276706;22;20044;-71
2022/06/15 06:12:32;;;;;;;3.85;1.67;;;;;;;;;;6276316;22;20026;-71
2022/06/15 06:14:57;;;;;;;3.75;1.63;;;;;;;;;;6276619;22;20000;-71
2022/06/15 06:17:22;;;;;;;3.42;1.67;;;;;;;;;;6276070;22;20007;-71
2022/06/15 06:19:48;;;;;;;3.65;1.50;;;;;;;;;;6276559;22;20006;-71
2022/06/15 06:22:13;;;;;;;3.20;1.67;;;;;;;;;;6277254;22;20046;-70
2022/06/15 06:24:38;;;;;;;4.25;2.13;;;;;;;;;;6276208;22;20077;-71
2022/06/15 06:27:05;;;;;;;3.13;1.63;;;;;;;;;;6276444;22;20061;-71
2022/06/15 06:29:30;;;;;;;3.00;1.77;;;;;;;;;;6276553;22;19998;-71
2022/06/15 06:31:59;;;;;;;4.45;1.70;;;;;;;;;;6276502;22;20004;-71
2022/06/15 06:34:25;;;;;;;3.13;1.95;;;;;;;;;;6276567;22;20007;-70
2022/06/15 06:36:50;;;;;;;3.90;1.67;;;;;;;;;;6276442;22;20355;-70
2022/06/15 06:39:18;;;;;;;3.60;1.77;;;;;;;;;;6276529;22;20323;-71
2022/06/15 06:41:43;;;;;;;3.15;1.60;;;;;;;;;;6276622;22;20023;-71
2022/06/15 06:44:10;;;;;;;4.32;1.90;;;;;;;;;;6276391;22;19988;-70
2022/06/15 06:46:35;;;;;;;3.25;1.70;;;;;;;;;;6276415;22;20022;-71
2022/06/15 06:49:01;;;;;;;4.72;1.88;;;;;;;;;;6276087;22;20004;-71
2022/06/15 06:51:27;;;;;;;4.47;1.80;;;;;;;;;;6276459;22;19995;-71
2022/06/15 06:53:52;;;;;;;3.78;2.20;;;;;;;;;;6276592;22;20379;-71
2022/06/15 06:56:18;;;;;;;4.72;2.10;;;;;;;;;;6276631;22;20007;-71
2022/06/15 06:58:43;;;;;;;5.88;1.90;;;;;;;;;;6276439;22;19995;-71
2022/06/15 07:01:08;;;;;;;4.57;2.20;;;;;;;;;;6276472;22;20090;-71
2022/06/15 07:03:34;;;;;;;4.30;2.10;;;;;;;;;;6276364;22;20245;-71
2022/06/15 07:06:00;;;;;;;4.57;2.20;;;;;;;;;;6276341;22;20004;-71
2022/06/15 07:08:26;;;;;;;6.25;2.30;;;;;;;;;;6277292;22;20004;-71
2022/06/15 07:10:51;;;;;;;7.40;2.58;;;;;;;;;;6278316;22;19999;-72
2022/06/15 07:13:16;;;;;;;4.95;2.30;;;;;;;;;;6278000;22;19996;-71
2022/06/15 07:15:41;;;;;;;8.07;2.65;;;;;;;;;;6278149;22;20082;-72
2022/06/15 07:18:07;;;;;;;4.27;2.27;;;;;;;;;;6278297;22;20443;-71
2022/06/15 07:20:32;;;;;;;9.25;2.40;;;;;;;;;;6278306;22;20517;-71
2022/06/15 07:22:58;;;;;;;6.53;2.60;;;;;;;;;;6277998;22;20060;-71
2022/06/15 07:25:23;;;;;;;5.82;2.42;;;;;;;;;;6277879;22;20016;-72
2022/06/15 07:27:49;;;;;;;10.30;2.60;;;;;;;;;;6268246;22;19992;-72
2022/06/15 07:30:16;;;;;;;6.28;2.40;;;;;;;;;;6278017;22;20010;-71
2022/06/15 07:32:42;;;;;;;8.35;2.50;;;;;;;;;;6277841;22;20420;-71
2022/06/15 07:35:12;;;;;;;5.93;2.35;;;;;;;;;;6277581;22;20006;-71
2022/06/15 07:37:37;;;;;;;7.03;2.50;;;;;;;;;;6276553;22;20086;-72
2022/06/15 07:40:03;;;;;;;8.07;2.83;;;;;;;;;;6278278;22;20418;-72
2022/06/15 07:42:28;;;;;;;10.77;2.63;;;;;;;;;;6277652;22;19992;-71
2022/06/15 07:44:53;;;;;;;6.97;2.60;;;;;;;;;;6277792;22;20007;-71
2022/06/15 07:50:03;;;;;;;7.40;3.03;;;;;;;;;;6276675;22;20011;-71
2022/06/15 07:52:28;;;;;;;9.52;2.83;;;;;;;;;;6277916;22;20315;-72
2022/06/15 07:54:54;;;;;;;6.83;2.57;;;;;;;;;;6278254;22;20056;-72
2022/06/15 07:57:19;;;;;;;5.40;2.78;;;;;;;;;;6276373;22;20255;-73
2022/06/15 07:59:44;;;;;;;11.10;3.30;;;;;;;;;;6276998;22;20077;-72
2022/06/15 08:02:10;;;;;;;11.45;3.38;;;;;;;;;;6277630;22;19995;-71
2022/06/15 08:04:35;;;;;;;6.88;3.00;;;;;;;;;;6276605;22;19996;-71
2022/06/15 08:07:01;;;;;;;8.98;2.78;;;;;;;;;;6277370;22;20020;-72
2022/06/15 08:09:26;;;;;;;6.40;2.95;;;;;;;;;;6276776;22;19995;-73
2022/06/15 08:14:36;;;;;;;7.53;3.00;;;;;;;;;;6277258;22;20462;-73
2022/06/15 08:17:02;;;;;;;9.98;3.10;;;;;;;;;;6277821;22;20023;-72
2022/06/15 08:19:30;;;;;;;7.63;3.35;;;;;;;;;;6266367;22;20402;-72
2022/06/15 08:21:55;;;;;;;9.13;3.03;;;;;;;;;;6273201;22;20026;-72
2022/06/15 08:24:21;;;;;;;6.95;3.10;;;;;;;;;;6273424;22;20000;-72
2022/06/15 08:26:47;;;;;;;9.40;3.15;;;;;;;;;;6271555;22;20016;-72
2022/06/15 08:29:13;;;;;;;6.05;3.00;;;;;;;;;;6273655;22;19994;-72
2022/06/15 08:31:39;;;;;;;6.57;3.38;;;;;;;;;;6272830;22;19996;-72
2022/06/15 08:34:05;;;;;;;11.20;3.70;;;;;;;;;;6272752;22;20447;-72
2022/06/15 08:36:31;;;;;;;8.77;2.95;;;;;;;;;;6273421;22;20253;-73
2022/06/15 08:38:56;;;;;;;12.13;3.38;;;;;;;;;;6274047;22;20018;-73
2022/06/15 08:41:24;;;;;;;6.97;3.30;;;;;;;;;;6245624;22;20305;-73
2022/06/15 08:43:57;;;;;;;5.70;3.00;;;;;;;;;;6273084;22;20462;-72
2022/06/15 08:46:41;;;;;;;11.32;2.75;;;;;;;;;;6273297;22;20023;-73
2022/06/15 08:49:14;;;;;;;6.20;3.58;;;;;;;;;;6270721;22;20034;-72
2022/06/15 08:51:44;;;;;;;8.95;3.42;;;;;;;;;;6271828;22;20071;-72
2022/06/15 08:54:18;;;;;;;7.90;3.30;;;;;;;;;;6272769;22;20052;-72
2022/06/15 08:56:45;;;;;;;9.25;3.40;;;;;;;;;;6245110;22;20316;-73
2022/06/15 08:59:34;;;;;;;13.18;3.70;;;;;;;;;;6273046;22;20072;-73
2022/06/15 09:02:05;;;;;;;8.88;3.10;;;;;;;;;;6270536;22;19992;-74
2022/06/15 09:04:40;;;;;;;9.40;3.42;;;;;;;;;;6270847;22;20011;-72
2022/06/15 09:07:21;;;;;;;10.25;3.60;;;;;;;;;;6267884;22;20002;-72
2022/06/15 09:09:46;;;;;;;7.05;3.47;;;;;;;;;;6272026;22;20008;-73
2022/06/15 09:15:06;;;;;;;8.60;3.83;;;;;;;;;;6271393;22;20232;-72
2022/06/15 09:17:31;;;;;;;10.05;3.33;;;;;;;;;;6271889;22;20075;-73
2022/06/15 09:20:01;;;;;;;19.13;3.90;;;;;;;;;;6271794;22;20069;-73
2022/06/15 09:22:33;;;;;;;8.02;3.50;;;;;;;;;;6271945;22;19996;-74
2022/06/15 09:25:01;;;;;;;8.65;4.30;;;;;;;;;;6271593;22;20023;-72
2022/06/15 09:27:31;;;;;;;9.50;4.03;;;;;;;;;;6271711;22;20038;-74
2022/06/15 09:29:59;;;;;;;12.45;6.53;;;;;;;;;;6270781;22;19998;-73
2022/06/15 09:32:27;;;;;;;9.20;3.80;;;;;;;;;;6272076;22;20023;-73
2022/06/15 09:35:09;;;;;;;10.27;3.95;;;;;;;;;;6271946;22;20007;-72
2022/06/15 09:37:36;;;;;;;11.05;4.10;;;;;;;;;;6271474;22;20030;-73
2022/06/15 09:40:02;;;;;;;12.57;4.18;;;;;;;;;;6272263;22;20335;-73
2022/06/15 09:42:35;;;;;;;15.90;4.00;;;;;;;;;;6270885;22;20067;-73
2022/06/15 09:45:04;;;;;;;12.75;4.30;;;;;;;;;;6271057;22;20370;-73
2022/06/15 09:47:37;;;;;;;13.68;4.25;;;;;;;;;;6272866;22;20019;-73
2022/06/15 09:50:02;;;;;;;10.32;4.30;;;;;;;;;;6271591;22;20003;-73
2022/06/15 09:52:33;;;;;;;14.77;4.35;;;;;;;;;;6272884;22;20060;-72
2022/06/15 09:54:59;;;;;;;7.90;3.83;;;;;;;;;;6271754;22;20040;-72
2022/06/15 09:57:24;;;;;;;10.88;3.70;;;;;;;;;;6271365;22;20142;-72
2022/06/15 09:59:50;;;;;;;12.20;3.92;;;;;;;;;;6270573;22;20141;-72
2022/06/15 10:02:18;;;;;;;7.28;2.92;;;;;;;;;;6269782;22;20059;-73
2022/06/15 10:04:44;;;;;;;8.43;3.42;;;;;;;;;;6270978;22;20004;-73
2022/06/15 10:07:12;;;;;;;8.30;3.47;;;;;;;;;;6272324;22;20431;-73
2022/06/15 10:09:39;;;;;;;9.05;3.47;;;;;;;;;;6272097;22;20000;-73
2022/06/15 10:13:10;;;;;;;9.43;3.50;;;;;;;;;;6270793;22;20004;-72
2022/06/15 10:15:12;;;;;;;8.35;3.30;;;;;;;;;;6253236;22;20091;-72
2022/06/15 10:17:40;;;;;;;11.48;3.40;;;;;;;;;;6270593;22;20075;-72
2022/06/15 10:20:05;;;;;;;6.03;3.17;;;;;;;;;;6269993;22;20763;-73
2022/06/15 10:22:31;;;;;;;10.65;2.95;;;;;;;;;;6269048;22;20000;-73
2022/06/15 10:24:57;;;;;;;8.18;3.38;;;;;;;;;;6271881;22;19999;-72
2022/06/15 10:27:34;;;;;;;14.38;3.67;;;;;;;;;;6270972;22;20062;-72
2022/06/15 10:29:59;;;;;;;6.13;3.00;;;;;;;;;;6271446;22;20007;-72
2022/06/15 10:32:24;;;;;;;7.53;3.00;;;;;;;;;;6271373;22;20080;-72
2022/06/15 10:34:50;;;;;;;8.95;3.15;;;;;;;;;;6271712;22;20197;-71
2022/06/15 10:37:32;;;;;;;7.80;3.20;;;;;;;;;;6271247;22;20023;-71
2022/06/15 10:40:00;;;;;;;7.72;3.03;;;;;;;;;;6270925;22;20099;-72
2022/06/15 10:42:37;;;;;;;6.35;2.88;;;;;;;;;;6271719;22;20003;-72
2022/06/15 10:45:03;;;;;;;8.02;3.47;;;;;;;;;;6271708;22;20156;-71
2022/06/15 10:47:47;;;;;;;7.80;2.75;;;;;;;;;;6273261;22;20434;-71
2022/06/15 10:50:32;;;;;;;8.32;2.85;;;;;;;;;;6272998;22;20069;-71
2022/06/15 10:52:59;;;;;;;9.95;2.58;;;;;;;;;;6273588;22;20006;-71
2022/06/15 11:04:12;;;;;;;9.07;2.80;;;;;;;;;;6268243;22;20057;-71
2022/06/15 11:06:43;;;;;;;10.38;2.40;;;;;;;;;;6270967;22;20014;-73
2022/06/15 11:09:16;;;;;;;9.93;2.53;;;;;;;;;;6244633;22;20297;-72
2022/06/15 11:11:41;;;;;;;6.57;2.30;;;;;;;;;;6272916;22;20003;-73
2022/06/15 11:14:12;;;;;;;8.05;2.08;;;;;;;;;;6272902;22;20576;-73
2022/06/15 11:19:23;;;;;;;10.93;2.38;;;;;;;;;;6272107;22;20048;-72
2022/06/15 11:21:52;;;;;;;6.45;1.95;;;;;;;;;;6272481;22;20014;-73
2022/06/15 11:24:33;;;;;;;4.78;2.10;;;;;;;;;;6272759;22;20003;-72
2022/06/15 11:27:03;;;;;;;4.15;1.80;;;;;;;;;;6273233;22;20034;-73
2022/06/15 11:29:31;;;;;;;8.35;2.78;;;;;;;;;;6272676;22;20065;-72
2022/06/15 11:31:58;;;;;;;7.90;2.65;;;;;;;;;;6272928;22;20297;-72
2022/06/15 11:34:26;;;;;;;8.63;2.60;;;;;;;;;;6272519;22;20308;-73
2022/06/15 11:36:56;;;;;;;7.85;2.53;;;;;;;;;;6271189;22;20504;-73
2022/06/15 11:39:32;;;;;;;8.32;2.47;;;;;;;;;;6272783;22;20335;-72
2022/06/15 11:41:57;;;;;;;7.90;2.53;;;;;;;;;;6273046;22;20000;-73
2022/06/15 11:44:24;;;;;;;4.55;2.03;;;;;;;;;;6273819;22;20007;-73
2022/06/15 11:47:08;;;;;;;7.38;2.55;;;;;;;;;;6273656;22;19995;-73
2022/06/15 11:49:33;;;;;;;6.20;2.30;;;;;;;;;;6270803;22;20008;-72
2022/06/15 11:52:13;;;;;;;8.45;2.03;;;;;;;;;;6270416;22;20007;-73
2022/06/15 11:55:02;;;;;;;8.80;2.25;;;;;;;;;;6269436;22;20053;-72
2022/06/15 11:57:38;;;;;;;6.70;1.98;;;;;;;;;;6270799;22;20020;-73
2022/06/15 12:00:21;;;;;;;5.32;2.05;;;;;;;;;;6272213;22;20018;-73
2022/06/15 12:02:49;;;;;;;6.85;2.33;;;;;;;;;;6272601;22;20010;-72
2022/06/15 12:05:34;;;;;;;6.55;2.28;;;;;;;;;;6272852;22;20045;-72
2022/06/15 12:08:10;;;;;;;8.40;2.28;;;;;;;;;;6272660;22;20133;-72
2022/06/15 12:10:35;;;;;;;5.57;2.20;;;;;;;;;;6273237;22;20003;-72
2022/06/15 12:13:06;;;;;;;9.02;2.20;;;;;;;;;;6273116;22;20008;-72
2022/06/15 12:15:41;;;;;;;6.03;1.80;;;;;;;;;;6272293;22;20003;-72
2022/06/15 12:18:21;;;;;;;6.03;1.98;;;;;;;;;;6273196;22;19999;-72
2022/06/15 12:20:51;;;;;;;7.32;2.45;;;;;;;;;;6271906;22;20006;-72
2022/06/15 12:23:23;;;;;;;6.47;2.15;;;;;;;;;;6271126;22;20003;-72
2022/06/15 12:26:01;;;;;;;3.20;1.60;;;;;;;;;;6270929;22;20355;-72
2022/06/15 12:28:44;;;;;;;7.65;2.00;;;;;;;;;;6272479;22;20003;-72
2022/06/15 12:31:25;;;;;;;7.30;1.85;;;;;;;;;;6272438;22;20027;-72
2022/06/15 12:33:56;;;;;;;6.85;1.70;;;;;;;;;;6272809;22;19995;-72
2022/06/15 12:36:21;;;;;;;3.83;1.58;;;;;;;;;;6271974;22;20019;-72
2022/06/15 12:38:46;;;;;;;4.57;1.53;;;;;;;;;;6273258;22;20003;-72
2022/06/15 12:43:58;;;;;;;4.28;1.58;;;;;;;;;;6273058;22;20010;-72
2022/06/15 12:46:24;;;;;;;6.28;1.60;;;;;;;;;;6272960;22;20027;-72
2022/06/15 12:48:49;;;;;;;3.17;1.20;;;;;;;;;;6273870;22;20010;-72
2022/06/15 12:51:18;;;;;;;6.28;1.60;;;;;;;;;;6273179;22;20220;-72
2022/06/15 12:53:51;;;;;;;3.10;1.23;;;;;;;;;;6272593;22;19995;-72
2022/06/15 12:56:30;;;;;;;9.73;1.50;;;;;;;;;;6272835;22;20016;-72
2022/06/15 12:58:55;;;;;;;4.35;1.40;;;;;;;;;;6274058;22;20007;-72
2022/06/15 13:01:25;;;;;;;6.88;1.40;;;;;;;;;;6273207;22;20053;-72
2022/06/15 13:04:05;;;;;;;2.97;1.45;;;;;;;;;;6245200;22;20078;-72
2022/06/15 13:06:38;;;;;;;7.88;1.40;;;;;;;;;;6273199;22;20019;-72
2022/06/15 13:09:03;;;;;;;;;;;;;;;;;;6274066;22;20007;-72
2022/06/15 13:11:29;;;;;;;8.85;1.10;;;;;;;;;;6272525;22;19952;-73
2022/06/15 13:13:55;;;;;;;3.72;1.27;;;;;;;;;;6270859;22;20007;-72
2022/06/15 13:16:33;;;;;;;2.33;0.95;;;;;;;;;;6270117;22;20335;-73
2022/06/15 13:18:59;;;;;;;1.42;0.80;;;;;;;;;;6270016;22;20007;-70
2022/06/15 13:21:26;;;;;;;1.85;0.90;;;;;;;;;;6271869;22;20075;-72
2022/06/15 13:23:58;;;;;;;2.92;0.80;;;;;;;;;;6267510;22;19988;-72
2022/06/15 13:26:24;;;;;;;3.05;1.00;;;;;;;;;;6268785;22;20411;-72
2022/06/15 13:29:15;;;;;;;3.28;1.02;;;;;;;;;;6270581;22;20000;-72
2022/06/15 13:31:40;;;;;;;2.08;0.80;;;;;;;;;;6257948;22;20035;-72
2022/06/15 13:34:07;;;;;;;3.00;1.10;;;;;;;;;;6271799;22;20856;-72
2022/06/15 13:36:32;;;;;;;2.15;0.90;;;;;;;;;;6271285;22;20087;-72
2022/06/15 13:38:58;;;;;;;2.97;0.90;;;;;;;;;;6270228;22;20039;-72
2022/06/15 13:41:23;;;;;;;4.70;1.33;;;;;;;;;;6271061;22;20004;-72
2022/06/15 13:43:49;;;;;;;2.53;0.82;;;;;;;;;;6272705;22;20023;-72
2022/06/15 13:46:20;;;;;;;1.67;0.98;;;;;;;;;;6271488;22;20320;-72
2022/06/15 13:48:46;;;;;;;1.88;0.95;;;;;;;;;;6270806;22;20003;-72
2022/06/15 13:51:16;;;;;;;2.90;0.95;;;;;;;;;;6271280;22;20010;-72
2022/06/15 13:54:00;;;;;;;5.55;1.40;;;;;;;;;;6271327;22;20061;-72
2022/06/15 13:56:30;;;;;;;4.35;1.00;;;;;;;;;;6271114;22;20008;-72
2022/06/15 13:59:14;;;;;;;3.42;1.10;;;;;;;;;;6271626;22;19999;-72
2022/06/15 14:01:42;;;;;;;3.10;1.20;;;;;;;;;;6271631;22;20450;-72
2022/06/15 14:04:16;;;;;;;3.72;1.27;;;;;;;;;;6269823;22;20512;-72
2022/06/15 14:06:50;;;;;;;2.55;1.08;;;;;;;;;;6271001;22;20431;-72
2022/06/15 14:09:15;;;;;;;3.92;1.15;;;;;;;;;;6271047;22;20030;-72
2022/06/15 14:11:46;;;;;;;2.63;1.00;;;;;;;;;;6271683;22;20004;-72
2022/06/15 14:14:12;;;;;;;2.35;0.90;;;;;;;;;;6270986;22;20006;-72
2022/06/15 14:16:56;;;;;;;3.65;1.10;;;;;;;;;;6270792;22;20023;-72
2022/06/15 14:19:40;;;;;;;2.75;1.13;;;;;;;;;;6271919;22;20007;-72
2022/06/15 14:22:10;;;;;;;2.55;1.38;;;;;;;;;;6274329;22;20027;-72
2022/06/15 14:24:35;;;;;;;3.72;1.17;;;;;;;;;;6271250;22;20034;-72
2022/06/15 14:27:02;;;;;;;2.30;1.00;;;;;;;;;;6272643;22;19988;-72
2022/06/15 14:29:33;;;;;;;3.15;1.20;;;;;;;;;;6273277;22;20003;-72
2022/06/15 14:31:58;;;;;;;5.57;2.22;;;;;;;;;;6271769;22;20439;-72
2022/06/15 14:34:26;;;;;;;9.43;2.22;;;;;;;;;;6272845;22;19999;-72
2022/06/15 14:36:55;;;;;;;7.43;1.95;;;;;;;;;;6272492;22;20086;-72
2022/06/15 14:39:32;;;;;;;7.13;1.75;;;;;;;;;;6272861;22;20016;-72
2022/06/15 14:42:16;;;;;;;9.00;2.40;;;;;;;;;;6272842;22;20027;-72
2022/06/15 14:44:42;;;;;;;7.60;1.90;;;;;;;;;;6271382;22;20007;-72
2022/06/15 14:47:10;;;;;;;12.27;2.83;;;;;;;;;;6270007;22;20057;-72
2022/06/15 14:49:37;;;;;;;9.30;2.67;;;;;;;;;;6272080;22;20018;-72
2022/06/15 14:52:08;;;;;;;7.75;2.45;;;;;;;;;;6272013;22;19995;-72
2022/06/15 14:54:33;;;;;;;5.70;2.55;;;;;;;;;;6272898;22;20006;-72
2022/06/15 14:56:59;;;;;;;7.40;2.38;;;;;;;;;;6272214;22;20012;-72
2022/06/15 14:59:25;;;;;;;8.65;2.50;;;;;;;;;;6273677;22;20026;-72
2022/06/15 15:01:56;;;;;;;6.00;2.13;;;;;;;;;;6272381;22;20320;-72
2022/06/15 15:04:21;;;;;;;8.98;2.10;;;;;;;;;;6273456;22;20428;-72
2022/06/15 15:06:57;;;;;;;8.68;2.10;;;;;;;;;;6272941;22;20022;-72
2022/06/15 15:09:23;;;;;;;6.28;2.08;;;;;;;;;;6272682;22;20311;-72